Time;durP1;ratioP1;P1;durP2;ratioP2;P2;SDS_P1;SDS_P2;PMS_P1;PMS_P2;Temp;Humidity;BMP_temperature;BMP_pressure;BME280_temperature;BME280_humidity;BME280_pressure;Samples;Min_cycle;Max_cycle;Signal;HPM_P1;HPM_P2
2023/04/25 00:01:29;;;;;;;3.57;3.27;;;10.00;99.90;;;;;;10410783;28;20791;-70
2023/04/25 00:06:31;;;;;;;3.43;3.13;;;10.00;99.90;;;;;;10428175;28;20216;-70
2023/04/25 00:11:32;;;;;;;3.93;3.53;;;10.00;99.90;;;;;;10430802;28;20293;-71
2023/04/25 00:16:34;;;;;;;3.70;3.40;;;10.00;99.90;;;;;;10433112;28;20637;-70
2023/04/25 00:21:35;;;;;;;4.73;4.00;;;9.90;99.90;;;;;;10432016;28;20232;-72
2023/04/25 00:26:35;;;;;;;4.57;4.10;;;9.90;99.90;;;;;;10434618;28;20231;-71
2023/04/25 00:31:36;;;;;;;4.53;3.93;;;9.90;99.90;;;;;;10440092;28;20282;-68
2023/04/25 00:36:37;;;;;;;6.20;4.20;;;9.80;99.90;;;;;;10415460;28;20274;-68
2023/04/25 00:41:39;;;;;;;4.33;3.73;;;9.80;99.90;;;;;;10417037;28;20239;-70
2023/04/25 00:46:40;;;;;;;4.40;3.80;;;9.80;99.90;;;;;;10424695;28;20248;-70
2023/04/25 00:51:53;;;;;;;4.70;4.20;;;9.80;99.90;;;;;;10415492;28;20281;-68
2023/04/25 00:56:53;;;;;;;5.00;4.50;;;9.80;99.90;;;;;;10423005;28;20220;-69
2023/04/25 01:01:54;;;;;;;5.03;4.50;;;9.80;99.90;;;;;;10423532;28;20664;-69
2023/04/25 01:06:55;;;;;;;6.67;4.63;;;9.70;99.90;;;;;;10419612;28;20216;-71
2023/04/25 01:11:57;;;;;;;5.00;4.60;;;9.80;99.90;;;;;;10426683;28;20224;-71
2023/04/25 01:16:58;;;;;;;5.10;4.70;;;9.80;99.90;;;;;;10431095;28;20302;-72
2023/04/25 01:21:59;;;;;;;5.27;4.53;;;9.80;99.90;;;;;;10424456;28;20236;-70
2023/04/25 01:27:01;;;;;;;4.80;4.40;;;9.80;99.90;;;;;;10414505;28;20218;-70
2023/04/25 01:32:03;;;;;;;5.73;5.23;;;9.80;99.90;;;;;;10417923;28;20897;-71
2023/04/25 01:37:03;;;;;;;5.00;4.60;;;9.80;99.90;;;;;;10433325;28;20243;-69
2023/04/25 01:42:04;;;;;;;5.33;4.80;;;9.90;99.90;;;;;;10411912;28;20236;-70
2023/04/25 01:47:05;;;;;;;5.93;5.20;;;9.90;99.90;;;;;;10424715;28;20220;-69
2023/04/25 01:52:05;;;;;;;5.30;4.80;;;9.80;99.90;;;;;;10427323;28;20249;-70
2023/04/25 01:57:06;;;;;;;5.93;5.30;;;9.90;99.90;;;;;;10431808;28;20217;-68
2023/04/25 02:02:06;;;;;;;5.20;4.77;;;9.80;99.90;;;;;;10417253;28;20661;-70
2023/04/25 02:07:07;;;;;;;6.17;5.57;;;9.70;99.90;;;;;;10426298;28;20698;-71
2023/04/25 02:12:10;;;;;;;5.37;4.87;;;9.60;99.90;;;;;;10422886;28;20217;-71
2023/04/25 02:17:12;;;;;;;5.70;5.20;;;9.70;99.90;;;;;;10431653;28;20302;-71
2023/04/25 02:22:13;;;;;;;6.17;5.57;;;9.70;99.90;;;;;;10430636;28;20232;-70
2023/04/25 02:27:13;;;;;;;5.40;4.90;;;9.60;99.90;;;;;;10425569;28;20308;-71
2023/04/25 02:32:14;;;;;;;7.60;5.40;;;9.60;99.90;;;;;;10424339;28;20279;-69
2023/04/25 02:37:14;;;;;;;6.43;5.83;;;9.60;99.90;;;;;;10424361;28;20236;-70
2023/04/25 02:42:15;;;;;;;6.87;5.77;;;9.60;99.90;;;;;;10419625;28;20249;-70
2023/04/25 02:47:16;;;;;;;6.50;5.67;;;9.50;99.90;;;;;;10421363;28;20638;-69
2023/04/25 02:52:17;;;;;;;7.43;6.07;;;9.40;99.90;;;;;;10419818;28;20315;-70
2023/04/25 02:57:17;;;;;;;7.67;6.70;;;9.40;99.90;;;;;;10419322;28;20242;-69
2023/04/25 03:02:18;;;;;;;6.63;6.03;;;9.40;99.90;;;;;;10401311;28;20778;-69
2023/04/25 03:07:18;;;;;;;7.00;6.30;;;9.30;99.90;;;;;;10423115;28;20228;-71
2023/04/25 03:12:19;;;;;;;7.37;6.63;;;9.30;99.90;;;;;;10431918;28;20602;-71
2023/04/25 03:17:20;;;;;;;6.90;6.20;;;9.30;99.90;;;;;;10408361;28;20216;-71
2023/04/25 03:22:21;;;;;;;7.83;7.03;;;9.20;99.90;;;;;;10429389;28;20236;-70
2023/04/25 03:27:21;;;;;;;6.80;6.17;;;9.20;99.90;;;;;;10414845;28;20595;-69
2023/04/25 03:32:22;;;;;;;9.27;7.57;;;9.30;99.90;;;;;;10406101;28;20311;-69
2023/04/25 03:37:22;;;;;;;8.00;7.20;;;9.30;99.90;;;;;;10423905;28;20218;-71
2023/04/25 03:42:23;;;;;;;8.13;7.33;;;9.20;99.90;;;;;;10421575;28;20224;-71
2023/04/25 03:47:24;;;;;;;8.63;7.70;;;9.20;99.90;;;;;;10424453;28;20648;-70
2023/04/25 03:52:25;;;;;;;8.70;7.80;;;9.10;99.90;;;;;;10415856;28;20245;-71
2023/04/25 03:57:25;;;;;;;9.97;7.93;;;9.10;99.90;;;;;;10419619;28;20685;-72
2023/04/25 04:02:26;;;;;;;8.83;7.17;;;9.10;99.90;;;;;;10423702;28;20232;-70
2023/04/25 04:07:28;;;;;;;10.27;8.53;;;9.10;99.90;;;;;;10423853;28;20234;-72
2023/04/25 04:12:28;;;;;;;9.30;8.30;;;9.10;99.90;;;;;;10426175;28;20592;-71
2023/04/25 04:17:30;;;;;;;9.77;8.77;;;9.00;99.90;;;;;;10418043;28;20225;-70
2023/04/25 04:22:31;;;;;;;10.13;9.07;;;9.10;99.90;;;;;;10418317;28;20235;-75
2023/04/25 04:27:32;;;;;;;10.40;8.30;;;9.20;99.90;;;;;;10421141;28;20327;-76
2023/04/25 04:32:34;;;;;;;9.30;8.40;;;9.20;99.90;;;;;;10407434;28;20224;-74
2023/04/25 04:37:34;;;;;;;9.67;8.67;;;9.20;99.90;;;;;;10412263;28;20220;-75
2023/04/25 04:42:36;;;;;;;9.33;8.33;;;9.20;99.90;;;;;;10390531;28;20287;-75
2023/04/25 04:47:37;;;;;;;8.30;7.50;;;9.30;99.90;;;;;;10408658;28;20225;-74
2023/04/25 04:52:40;;;;;;;9.73;8.63;;;9.30;99.90;;;;;;10420631;28;20225;-76
2023/04/25 04:57:41;;;;;;;9.97;8.20;;;9.40;99.90;;;;;;10404962;28;20311;-69
2023/04/25 05:02:42;;;;;;;9.97;8.57;;;9.60;99.90;;;;;;10418573;28;20234;-69
2023/04/25 05:07:42;;;;;;;13.97;8.13;;;9.60;99.90;;;;;;10424030;28;20216;-69
2023/04/25 05:12:43;;;;;;;13.47;7.60;;;9.50;99.90;;;;;;10428120;28;20228;-69
2023/04/25 05:17:43;;;;;;;12.60;6.37;;;9.50;99.90;;;;;;10434391;28;20338;-69
2023/04/25 05:22:47;;;;;;;12.40;6.50;;;9.40;99.90;;;;;;10417085;28;20230;-77
2023/04/25 05:27:47;;;;;;;13.33;6.70;;;9.30;99.90;;;;;;10434556;28;20217;-76
2023/04/25 05:32:48;;;;;;;11.23;6.67;;;9.20;99.90;;;;;;10434661;28;20219;-75
2023/04/25 05:37:49;;;;;;;12.50;7.13;;;9.20;99.90;;;;;;10428564;28;20227;-76
2023/04/25 05:42:50;;;;;;;11.10;6.57;;;9.30;99.90;;;;;;10434926;28;20228;-75
2023/04/25 05:47:50;;;;;;;11.83;6.70;;;9.40;99.90;;;;;;10426475;28;20230;-76
2023/04/25 05:52:52;;;;;;;12.10;7.13;;;9.50;99.90;;;;;;10428981;28;20258;-76
2023/04/25 05:57:55;;;;;;;10.00;6.10;;;9.70;99.90;;;;;;10423618;28;20330;-76
2023/04/25 06:02:56;;;;;;;12.03;6.30;;;10.20;99.90;;;;;;10434291;28;20229;-76
2023/04/25 06:07:57;;;;;;;10.13;5.57;;;10.70;99.90;;;;;;10427760;28;20718;-76
2023/04/25 06:12:57;;;;;;;11.10;6.00;;;11.00;99.90;;;;;;10434275;28;20255;-75
2023/04/25 06:17:58;;;;;;;10.70;5.87;;;11.00;99.90;;;;;;10425456;28;20216;-76
2023/04/25 06:22:59;;;;;;;14.77;6.10;;;10.90;99.90;;;;;;10433153;28;20900;-77
2023/04/25 06:28:00;;;;;;;9.10;5.60;;;11.10;99.90;;;;;;10433453;28;20238;-76
2023/04/25 06:33:00;;;;;;;12.20;5.27;;;11.30;99.90;;;;;;10431265;28;20230;-76
2023/04/25 06:38:01;;;;;;;13.97;5.20;;;11.50;99.90;;;;;;10423220;28;20228;-76
2023/04/25 06:43:12;;;;;;;10.53;4.93;;;12.10;99.90;;;;;;10427169;28;20247;-77
2023/04/25 06:48:13;;;;;;;8.40;3.90;;;14.20;99.90;;;;;;10410946;28;20229;-77
2023/04/25 06:53:14;;;;;;;6.30;3.40;;;15.30;99.90;;;;;;10416922;28;20776;-78
2023/04/25 06:58:17;;;;;;;8.90;3.87;;;14.90;99.90;;;;;;10423655;28;20268;-77
2023/04/25 07:03:27;;;;;;;9.17;4.10;;;14.80;99.90;;;;;;10429167;28;20236;-77
2023/04/25 07:08:29;;;;;;;6.77;3.40;;;14.80;99.90;;;;;;10425837;28;20692;-77
2023/04/25 07:13:30;;;;;;;11.87;3.83;;;14.80;99.90;;;;;;10429531;28;20226;-76
2023/04/25 07:18:31;;;;;;;14.80;4.90;;;15.10;99.90;;;;;;10419249;28;20312;-76
2023/04/25 07:23:32;;;;;;;12.17;4.70;;;15.20;99.90;;;;;;10423423;28;20240;-77
2023/04/25 07:28:33;;;;;;;7.70;4.40;;;14.70;99.90;;;;;;10421776;28;20215;-76
2023/04/25 07:33:34;;;;;;;6.37;3.83;;;14.00;99.90;;;;;;10422404;28;20223;-76
2023/04/25 07:38:35;;;;;;;12.27;3.93;;;13.60;99.90;;;;;;10427263;28;20220;-77
2023/04/25 07:43:35;;;;;;;6.93;3.93;;;13.50;99.90;;;;;;10426604;28;20785;-76
2023/04/25 07:48:36;;;;;;;7.80;3.67;;;14.00;99.90;;;;;;10422508;28;20597;-77
2023/04/25 07:53:38;;;;;;;7.43;3.83;;;15.20;99.90;;;;;;10425792;28;20615;-77
2023/04/25 07:58:38;;;;;;;6.10;2.80;;;16.20;99.90;;;;;;10420129;28;20284;-78
2023/04/25 08:03:39;;;;;;;7.47;2.70;;;17.30;99.80;;;;;;10424081;28;20224;-76
2023/04/25 08:08:40;;;;;;;9.47;3.00;;;18.30;94.20;;;;;;10429056;28;20606;-77
2023/04/25 08:13:40;;;;;;;6.77;2.50;;;19.10;88.90;;;;;;10426909;28;20238;-76
2023/04/25 08:18:41;;;;;;;5.23;2.27;;;20.00;80.00;;;;;;10423751;28;20208;-77
2023/04/25 08:23:45;;;;;;;9.07;2.60;;;21.80;69.70;;;;;;10434195;28;20237;-77
2023/04/25 08:28:46;;;;;;;7.40;2.80;;;24.10;58.70;;;;;;10427654;28;20224;-77
2023/04/25 08:33:47;;;;;;;11.13;2.97;;;25.70;51.80;;;;;;10427427;28;20216;-75
2023/04/25 08:38:48;;;;;;;8.47;2.97;;;26.50;45.00;;;;;;10428086;28;20222;-76
2023/04/25 08:43:48;;;;;;;5.53;2.40;;;27.90;43.80;;;;;;10428708;28;20232;-76
2023/04/25 08:48:52;;;;;;;10.70;3.27;;;26.80;44.20;;;;;;10431597;28;20320;-77
2023/04/25 08:53:53;;;;;;;6.67;2.77;;;28.30;42.60;;;;;;10426020;28;20225;-77
2023/04/25 08:58:55;;;;;;;6.03;3.00;;;28.00;41.70;;;;;;10435398;28;20216;-77
2023/04/25 09:03:57;;;;;;;5.20;2.53;;;26.80;42.50;;;;;;10425881;28;20248;-77
2023/04/25 09:09:05;;;;;;;5.27;2.73;;;26.30;43.00;;;;;;10426121;28;20247;-76
2023/04/25 09:14:20;;;;;;;5.33;2.43;;;26.20;43.30;;;;;;10420430;28;20755;-76
2023/04/25 09:19:22;;;;;;;4.80;2.27;;;27.90;40.10;;;;;;10434181;28;20222;-76
2023/04/25 09:24:36;;;;;;;4.27;2.30;;;28.10;38.00;;;;;;10422639;28;20235;-77
2023/04/25 09:29:41;;;;;;;4.00;2.27;;;27.50;38.10;;;;;;10426584;28;20227;-77
2023/04/25 09:34:44;;;;;;;5.93;2.50;;;29.20;36.40;;;;;;10434534;28;20213;-77
2023/04/25 09:39:47;;;;;;;4.70;2.30;;;27.60;36.40;;;;;;10427228;28;20220;-77
2023/04/25 09:44:47;;;;;;;4.17;2.60;;;24.20;42.50;;;;;;10433653;28;20231;-76
2023/04/25 09:49:48;;;;;;;3.83;2.30;;;21.60;48.20;;;;;;10433507;28;20762;-76
2023/04/25 09:54:51;;;;;;;4.77;2.70;;;19.20;52.20;;;;;;10413673;28;20600;-76
2023/04/25 09:59:54;;;;;;;8.20;2.70;;;18.20;55.70;;;;;;10434558;28;20690;-75
2023/04/25 10:04:55;;;;;;;5.20;2.20;;;17.50;58.40;;;;;;10433606;28;20232;-76
2023/04/25 10:10:06;;;;;;;3.77;2.27;;;16.80;59.80;;;;;;10439821;28;20231;-76
2023/04/25 10:15:08;;;;;;;4.20;2.37;;;16.40;59.80;;;;;;10418570;28;20273;-76
2023/04/25 10:20:10;;;;;;;4.47;2.23;;;15.90;62.80;;;;;;10431280;28;20206;-75
2023/04/25 10:25:12;;;;;;;6.23;3.20;;;15.40;63.20;;;;;;10418955;28;20173;-76
2023/04/25 10:30:16;;;;;;;5.20;3.60;;;14.80;65.20;;;;;;10429902;28;20180;-76
2023/04/25 10:35:18;;;;;;;5.03;3.33;;;15.00;67.40;;;;;;10424151;28;20181;-76
2023/04/25 10:40:22;;;;;;;6.70;3.13;;;15.40;66.40;;;;;;10423649;28;20182;-75
2023/04/25 10:45:23;;;;;;;8.40;3.20;;;15.90;63.70;;;;;;10419093;28;20241;-76
2023/04/25 10:50:38;;;;;;;6.23;3.37;;;16.10;63.10;;;;;;10426062;28;21372;-76
2023/04/25 10:55:52;;;;;;;4.33;2.90;;;17.50;60.10;;;;;;10431862;28;20949;-77
2023/04/25 11:00:53;;;;;;;6.03;3.30;;;17.60;59.40;;;;;;10420279;28;20645;-76
2023/04/25 11:05:54;;;;;;;7.17;3.57;;;16.90;61.10;;;;;;10420985;28;20219;-76
2023/04/25 11:10:59;;;;;;;6.67;3.63;;;16.90;63.30;;;;;;10427001;28;20721;-76
2023/04/25 11:15:59;;;;;;;5.67;3.17;;;18.00;58.60;;;;;;10422177;28;20666;-76
2023/04/25 11:21:02;;;;;;;5.37;3.40;;;18.20;59.70;;;;;;10429683;28;20329;-76
2023/04/25 11:26:03;;;;;;;3.50;2.67;;;18.30;59.60;;;;;;10413028;28;20712;-76
2023/04/25 11:31:04;;;;;;;6.23;3.30;;;18.60;57.70;;;;;;10420315;28;20234;-77
2023/04/25 11:36:05;;;;;;;7.70;3.50;;;18.40;57.30;;;;;;10429349;28;20462;-76
2023/04/25 11:41:06;;;;;;;6.30;3.40;;;17.50;58.20;;;;;;10420928;28;20233;-75
2023/04/25 11:46:07;;;;;;;7.43;3.80;;;16.30;60.40;;;;;;10423669;28;20221;-76
2023/04/25 11:51:08;;;;;;;7.07;3.83;;;15.70;64.90;;;;;;10428316;28;20605;-75
2023/04/25 11:56:11;;;;;;;21.00;4.00;;;15.60;65.20;;;;;;10410686;28;20214;-76
2023/04/25 12:01:12;;;;;;;7.10;3.10;;;15.80;64.70;;;;;;10407638;28;20603;-76
2023/04/25 12:06:17;;;;;;;12.63;3.40;;;15.70;63.10;;;;;;10411781;28;20220;-75
2023/04/25 12:11:21;;;;;;;8.97;3.87;;;15.60;64.30;;;;;;10416035;28;20228;-75
2023/04/25 12:16:22;;;;;;;9.63;3.77;;;15.40;65.90;;;;;;10408531;28;20303;-76
2023/04/25 12:21:22;;;;;;;7.23;3.27;;;15.30;66.80;;;;;;10431799;28;20247;-76
2023/04/25 12:26:25;;;;;;;7.77;3.33;;;15.50;65.70;;;;;;10423478;28;20232;-76
2023/04/25 12:31:25;;;;;;;10.43;2.90;;;15.50;64.60;;;;;;10425724;28;20315;-76
2023/04/25 12:36:26;;;;;;;12.93;3.53;;;15.40;65.00;;;;;;10427398;28;20328;-76
2023/04/25 12:41:27;;;;;;;8.57;3.40;;;15.20;65.20;;;;;;10432391;28;20221;-75
2023/04/25 12:46:27;;;;;;;6.27;3.07;;;14.80;66.80;;;;;;10428529;28;20224;-76
2023/04/25 12:51:28;;;;;;;6.07;2.77;;;14.90;65.20;;;;;;10424485;28;20268;-76
2023/04/25 12:56:30;;;;;;;7.87;2.77;;;15.40;63.80;;;;;;10414404;28;20223;-76
2023/04/25 13:01:30;;;;;;;8.30;3.10;;;16.00;63.10;;;;;;10421224;28;20234;-76
2023/04/25 13:06:31;;;;;;;4.73;2.70;;;16.40;62.50;;;;;;10414918;28;20213;-76
2023/04/25 13:11:35;;;;;;;5.73;2.33;;;16.60;59.60;;;;;;10424191;28;20222;-77
2023/04/25 13:16:36;;;;;;;7.63;2.57;;;16.90;58.80;;;;;;10431059;28;20588;-75
2023/04/25 13:21:36;;;;;;;7.07;2.60;;;16.90;58.60;;;;;;10431217;28;20238;-75
2023/04/25 13:26:37;;;;;;;5.10;2.00;;;16.70;58.70;;;;;;10429661;28;20344;-76
2023/04/25 13:31:41;;;;;;;9.70;2.90;;;16.40;59.60;;;;;;10430432;28;20241;-75
2023/04/25 13:36:42;;;;;;;5.53;2.70;;;16.50;61.20;;;;;;10433776;28;20697;-75
2023/04/25 13:41:42;;;;;;;10.37;2.63;;;16.50;60.00;;;;;;10432396;28;20316;-75
2023/04/25 13:46:43;;;;;;;4.57;2.47;;;16.20;58.80;;;;;;10424039;28;20247;-76
2023/04/25 13:51:44;;;;;;;6.10;2.13;;;15.60;58.80;;;;;;10432410;28;20746;-76
2023/04/25 13:56:45;;;;;;;4.40;2.60;;;15.20;59.30;;;;;;10426736;28;20216;-76
2023/04/25 14:01:46;;;;;;;6.17;2.47;;;15.20;60.40;;;;;;10432590;28;20285;-76
2023/04/25 14:06:46;;;;;;;6.30;2.33;;;15.20;61.30;;;;;;10427188;28;20298;-77
2023/04/25 14:11:47;;;;;;;4.47;2.30;;;15.40;59.90;;;;;;10424674;28;20224;-76
2023/04/25 14:16:48;;;;;;;5.87;2.27;;;15.50;59.70;;;;;;10426193;28;20291;-76
2023/04/25 14:21:49;;;;;;;7.00;2.33;;;15.60;59.10;;;;;;10422271;28;20639;-75
2023/04/25 14:26:50;;;;;;;4.07;2.13;;;15.50;59.20;;;;;;10427124;28;20266;-76
2023/04/25 14:31:50;;;;;;;4.70;1.93;;;15.50;60.00;;;;;;10433462;28;20286;-75
2023/04/25 14:36:52;;;;;;;6.77;2.00;;;15.40;60.90;;;;;;10425842;28;20714;-75
2023/04/25 14:41:52;;;;;;;5.83;2.30;;;15.30;61.00;;;;;;10431396;28;20220;-76
2023/04/25 14:46:53;;;;;;;6.20;2.43;;;15.10;60.80;;;;;;10417131;28;20219;-75
2023/04/25 14:51:54;;;;;;;6.00;2.80;;;14.90;62.30;;;;;;10429735;28;20278;-76
2023/04/25 14:56:54;;;;;;;6.23;2.27;;;15.00;62.50;;;;;;10422860;28;20251;-76
2023/04/25 15:01:55;;;;;;;9.17;2.63;;;15.30;60.40;;;;;;10424669;28;20236;-76
2023/04/25 15:06:57;;;;;;;5.20;2.47;;;15.30;59.40;;;;;;10424428;28;20228;-75
2023/04/25 15:11:58;;;;;;;5.20;2.60;;;15.00;58.30;;;;;;10426974;28;20328;-75
2023/04/25 15:16:59;;;;;;;6.43;2.33;;;14.90;59.00;;;;;;10422736;28;20243;-76
2023/04/25 15:22:02;;;;;;;5.67;2.60;;;14.80;59.10;;;;;;10431870;28;20227;-76
2023/04/25 15:27:04;;;;;;;6.13;2.40;;;14.80;59.30;;;;;;10414241;28;21004;-76
2023/04/25 15:32:05;;;;;;;5.27;2.40;;;14.60;60.00;;;;;;10430092;28;20307;-76
2023/04/25 15:37:06;;;;;;;8.77;2.23;;;14.40;59.80;;;;;;10421176;28;20330;-75
2023/04/25 15:42:07;;;;;;;9.47;2.50;;;14.20;60.50;;;;;;10421206;28;20683;-76
2023/04/25 15:47:08;;;;;;;9.37;2.50;;;14.10;61.00;;;;;;10423609;28;20215;-74
2023/04/25 15:52:09;;;;;;;5.37;2.00;;;14.00;61.50;;;;;;10413950;28;20234;-76
2023/04/25 15:57:11;;;;;;;6.87;2.50;;;13.90;61.70;;;;;;10421379;28;20228;-76
2023/04/25 16:02:13;;;;;;;7.37;2.20;;;13.50;62.30;;;;;;10429028;28;20248;-76
2023/04/25 16:07:17;;;;;;;6.20;2.50;;;13.40;63.30;;;;;;10421927;28;20216;-75
2023/04/25 16:12:20;;;;;;;8.63;2.23;;;13.50;63.70;;;;;;10421692;28;20224;-75
2023/04/25 16:17:21;;;;;;;6.03;1.80;;;13.50;63.70;;;;;;10417770;28;20346;-76
2023/04/25 16:22:22;;;;;;;4.10;2.20;;;13.60;63.80;;;;;;10428919;28;20228;-75
2023/04/25 16:27:22;;;;;;;4.50;1.90;;;13.60;62.90;;;;;;10414917;28;20215;-75
2023/04/25 16:32:23;;;;;;;5.90;2.00;;;13.70;64.00;;;;;;10419829;28;20223;-75
2023/04/25 16:37:24;;;;;;;7.10;1.80;;;13.80;64.20;;;;;;10426657;28;20220;-76
2023/04/25 16:42:24;;;;;;;4.67;2.00;;;13.80;63.60;;;;;;10424490;28;20578;-77
2023/04/25 16:47:25;;;;;;;5.47;2.00;;;13.50;62.60;;;;;;10423391;28;20239;-75
2023/04/25 16:52:35;;;;;;;4.03;1.93;;;13.20;65.60;;;;;;10432236;28;20224;-75
2023/04/25 16:57:39;;;;;;;5.43;1.80;;;13.10;65.30;;;;;;10431277;28;20243;-76
2023/04/25 17:02:40;;;;;;;6.63;1.80;;;12.90;64.70;;;;;;10425004;28;20231;-75
2023/04/25 17:07:40;;;;;;;5.57;1.83;;;12.90;64.80;;;;;;10422346;28;20720;-76
2023/04/25 17:12:41;;;;;;;7.50;2.20;;;12.80;64.00;;;;;;10429980;28;20755;-76
2023/04/25 17:17:42;;;;;;;6.10;1.90;;;12.60;63.20;;;;;;10426464;28;20247;-75
2023/04/25 17:22:43;;;;;;;7.83;2.03;;;12.50;62.90;;;;;;10433979;28;20235;-75
2023/04/25 17:27:44;;;;;;;8.20;2.17;;;12.50;61.80;;;;;;10431424;28;20226;-77
2023/04/25 17:32:44;;;;;;;6.50;2.07;;;12.50;63.00;;;;;;10427700;28;20224;-75
2023/04/25 17:37:45;;;;;;;5.00;1.80;;;12.50;64.90;;;;;;10425068;28;20239;-75
2023/04/25 17:42:45;;;;;;;5.47;1.80;;;12.40;64.20;;;;;;10426754;28;20225;-76
2023/04/25 17:47:46;;;;;;;7.80;1.70;;;12.40;65.20;;;;;;10434120;28;20263;-75
2023/04/25 17:52:48;;;;;;;4.43;1.70;;;12.30;65.40;;;;;;10431196;28;20215;-76
2023/04/25 17:57:48;;;;;;;6.47;1.93;;;12.20;65.30;;;;;;10432795;28;20220;-75
2023/04/25 18:02:50;;;;;;;6.57;1.60;;;12.10;65.30;;;;;;10427234;28;20228;-75
2023/04/25 18:07:51;;;;;;;6.10;1.70;;;11.90;65.60;;;;;;10431377;28;20224;-75
2023/04/25 18:12:52;;;;;;;6.27;2.00;;;11.80;65.80;;;;;;10426810;28;20243;-75
2023/04/25 18:17:52;;;;;;;8.17;2.00;;;11.80;66.60;;;;;;10415154;28;20221;-76
2023/04/25 18:22:53;;;;;;;4.93;2.07;;;11.70;67.90;;;;;;10425214;28;20219;-75
2023/04/25 18:27:54;;;;;;;7.03;2.43;;;11.70;69.00;;;;;;10423323;28;20298;-75
2023/04/25 18:32:55;;;;;;;6.90;2.33;;;11.60;70.30;;;;;;10425032;28;20272;-76
2023/04/25 18:37:56;;;;;;;5.77;2.20;;;11.50;71.20;;;;;;10439893;28;20228;-74
2023/04/25 18:42:57;;;;;;;6.57;2.37;;;11.30;71.20;;;;;;10424837;28;20232;-74
2023/04/25 18:47:58;;;;;;;6.00;2.20;;;11.20;71.30;;;;;;10432478;28;20585;-77
2023/04/25 18:52:59;;;;;;;5.27;1.80;;;11.20;71.90;;;;;;10422847;28;20224;-76
2023/04/25 18:58:06;;;;;;;6.50;2.10;;;11.00;72.40;;;;;;10423101;28;20809;-76
2023/04/25 19:03:07;;;;;;;4.90;1.80;;;10.90;73.20;;;;;;10418576;28;20220;-75
2023/04/25 19:08:08;;;;;;;3.43;1.47;;;10.70;74.90;;;;;;10413705;28;20617;-74
2023/04/25 19:13:08;;;;;;;6.30;2.00;;;10.50;77.10;;;;;;10431460;28;20215;-76
2023/04/25 19:18:09;;;;;;;4.60;2.13;;;10.30;78.50;;;;;;10421285;28;20215;-75
2023/04/25 19:23:10;;;;;;;6.07;2.10;;;10.20;79.70;;;;;;10423991;28;20248;-75
2023/04/25 19:28:12;;;;;;;7.27;2.40;;;10.00;80.60;;;;;;10431710;28;20710;-75
2023/04/25 19:33:55;;;;;;;5.97;2.20;;;9.90;82.30;;;;;;10422861;28;20227;-77
2023/04/25 19:39:03;;;;;;;4.47;2.40;;;9.70;83.20;;;;;;10402460;28;20220;-76
2023/04/25 19:44:06;;;;;;;6.23;2.13;;;9.60;84.30;;;;;;10422339;28;20238;-76
2023/04/25 19:49:06;;;;;;;7.63;2.63;;;9.50;85.50;;;;;;10424393;28;20676;-76
2023/04/25 19:54:07;;;;;;;5.57;2.10;;;9.30;87.00;;;;;;10428442;28;20239;-76
2023/04/25 19:59:12;;;;;;;5.53;2.67;;;9.20;87.70;;;;;;10412391;28;20754;-76
2023/04/25 20:04:29;;;;;;;;;;;;;;;;;;;;;
2023/04/25 20:09:30;;;;;;;6.83;2.57;;;9.00;90.60;;;;;;10426228;28;20269;-72
2023/04/25 20:14:31;;;;;;;5.97;2.60;;;8.90;91.10;;;;;;10415037;28;20486;-74
2023/04/25 20:19:32;;;;;;;6.63;2.20;;;8.80;91.60;;;;;;10412979;28;20690;-71
2023/04/25 20:24:33;;;;;;;3.60;2.10;;;8.70;92.60;;;;;;10427944;28;20227;-73
2023/04/25 20:29:34;;;;;;;5.73;2.27;;;8.60;92.90;;;;;;10427642;28;20215;-71
2023/04/25 20:34:35;;;;;;;6.17;2.50;;;8.50;93.60;;;;;;10432984;28;20710;-73
2023/04/25 20:39:35;;;;;;;4.80;2.30;;;8.50;94.70;;;;;;10432848;28;20250;-71
2023/04/25 20:44:39;;;;;;;5.87;2.40;;;8.50;94.40;;;;;;10431760;28;20315;-73
2023/04/25 20:49:40;;;;;;;3.77;2.53;;;8.60;94.70;;;;;;10434091;28;20274;-72
2023/04/25 20:54:40;;;;;;;5.17;2.37;;;8.80;95.50;;;;;;10424538;28;20278;-71
2023/04/25 20:59:41;;;;;;;4.83;2.83;;;8.90;96.10;;;;;;10431702;28;20255;-72
2023/04/25 21:04:45;;;;;;;4.97;3.00;;;8.90;97.10;;;;;;10429545;28;20551;-70
2023/04/25 21:09:46;;;;;;;7.13;2.80;;;9.10;96.90;;;;;;10432577;28;20261;-71
2023/04/25 21:14:47;;;;;;;4.50;2.10;;;9.00;97.50;;;;;;10427197;28;20236;-71
2023/04/25 21:19:47;;;;;;;3.80;1.97;;;9.00;97.40;;;;;;10441177;28;20251;-71
2023/04/25 21:24:49;;;;;;;4.63;2.20;;;8.90;97.50;;;;;;10429572;28;20232;-73
2023/04/25 21:29:50;;;;;;;5.37;2.17;;;8.80;97.60;;;;;;10433942;28;20230;-73
2023/04/25 21:34:53;;;;;;;6.33;2.40;;;8.70;97.90;;;;;;10427114;28;20304;-73
2023/04/25 21:39:54;;;;;;;4.40;2.43;;;8.60;98.40;;;;;;10435295;28;20217;-73
2023/04/25 21:44:55;;;;;;;5.43;2.37;;;8.40;99.60;;;;;;10427304;28;20224;-73
2023/04/25 21:49:55;;;;;;;3.77;2.57;;;8.20;99.90;;;;;;10439750;28;20212;-73
2023/04/25 21:54:56;;;;;;;4.90;2.83;;;8.00;99.90;;;;;;10433819;28;20220;-73
2023/04/25 21:59:57;;;;;;;7.50;3.27;;;7.80;99.90;;;;;;10427760;28;20231;-72
2023/04/25 22:04:59;;;;;;;6.87;3.00;;;7.70;99.90;;;;;;10426748;28;20221;-76
2023/04/25 22:10:00;;;;;;;4.73;2.80;;;7.60;99.90;;;;;;10424182;28;20212;-76
2023/04/25 22:15:00;;;;;;;4.17;2.50;;;7.50;99.90;;;;;;10413128;28;20228;-75
2023/04/25 22:20:09;;;;;;;4.87;2.70;;;7.40;99.90;;;;;;10423156;28;20286;-74
2023/04/25 22:25:12;;;;;;;4.40;2.17;;;7.20;99.90;;;;;;10417426;28;20251;-74
2023/04/25 22:30:13;;;;;;;4.57;2.43;;;7.20;99.90;;;;;;10420507;28;20279;-70
2023/04/25 22:35:14;;;;;;;7.03;2.53;;;7.00;99.90;;;;;;10422638;28;20266;-70
2023/04/25 22:40:15;;;;;;;5.77;2.40;;;6.90;99.90;;;;;;10417441;28;20185;-70
2023/04/25 22:45:16;;;;;;;4.37;2.50;;;6.90;99.90;;;;;;10422181;28;20243;-72
2023/04/25 22:50:16;;;;;;;5.27;2.67;;;6.90;99.90;;;;;;10426076;28;20192;-74
2023/04/25 22:55:17;;;;;;;5.70;2.60;;;6.90;99.90;;;;;;10431010;28;20211;-73
2023/04/25 23:00:18;;;;;;;7.50;2.57;;;6.90;99.90;;;;;;10425237;28;20190;-73
2023/04/25 23:05:19;;;;;;;3.33;2.10;;;6.80;99.90;;;;;;10427803;28;20212;-73
2023/04/25 23:10:20;;;;;;;9.00;2.70;;;6.70;99.90;;;;;;10421062;28;20423;-71
2023/04/25 23:15:20;;;;;;;4.03;2.50;;;6.60;99.90;;;;;;10421060;28;20526;-71
2023/04/25 23:20:22;;;;;;;4.80;2.60;;;6.50;99.90;;;;;;10431126;28;20219;-71
2023/04/25 23:25:23;;;;;;;4.40;2.77;;;6.50;99.90;;;;;;10427805;28;20223;-73
2023/04/25 23:30:23;;;;;;;4.17;3.10;;;6.40;99.90;;;;;;10424885;28;20188;-71
2023/04/25 23:35:26;;;;;;;7.20;3.57;;;6.30;99.90;;;;;;10427534;28;20188;-71
2023/04/25 23:40:27;;;;;;;5.43;3.47;;;6.30;99.90;;;;;;10433496;28;20219;-72
2023/04/25 23:45:29;;;;;;;7.83;3.97;;;6.20;99.90;;;;;;10427293;28;20230;-71
2023/04/25 23:50:30;;;;;;;8.43;3.90;;;6.20;99.90;;;;;;10414594;28;20316;-73
2023/04/25 23:55:31;;;;;;;7.73;4.23;;;6.20;99.90;;;;;;10420930;28;20253;-71
